sensor_id;sensor_type;location;lat;lon;timestamp;P1;durP1;ratioP1;P2;durP2;ratioP2
5622;SDS011;2833;50.432;10.706;2022-11-15T00:01:08;10.93;;;6.00;;
5622;SDS011;2833;50.432;10.706;2022-11-15T00:03:34;7.87;;;4.97;;
5622;SDS011;2833;50.432;10.706;2022-11-15T00:06:03;10.37;;;6.03;;
5622;SDS011;2833;50.432;10.706;2022-11-15T00:08:29;7.63;;;5.47;;
5622;SDS011;2833;50.432;10.706;2022-11-15T00:10:55;12.43;;;6.70;;
5622;SDS011;2833;50.432;10.706;2022-11-15T00:13:21;8.00;;;5.57;;
5622;SDS011;2833;50.432;10.706;2022-11-15T00:15:46;8.80;;;5.50;;
5622;SDS011;2833;50.432;10.706;2022-11-15T00:18:12;8.90;;;5.83;;
5622;SDS011;2833;50.432;10.706;2022-11-15T00:20:37;11.30;;;6.30;;
5622;SDS011;2833;50.432;10.706;2022-11-15T00:23:03;10.00;;;5.90;;
5622;SDS011;2833;50.432;10.706;2022-11-15T00:25:28;9.93;;;6.27;;
5622;SDS011;2833;50.432;10.706;2022-11-15T00:27:56;7.57;;;5.57;;
5622;SDS011;2833;50.432;10.706;2022-11-15T00:30:22;13.50;;;5.60;;
5622;SDS011;2833;50.432;10.706;2022-11-15T00:32:47;9.00;;;5.30;;
5622;SDS011;2833;50.432;10.706;2022-11-15T00:35:13;6.53;;;4.80;;
5622;SDS011;2833;50.432;10.706;2022-11-15T00:37:38;8.53;;;5.40;;
5622;SDS011;2833;50.432;10.706;2022-11-15T00:40:03;15.97;;;6.00;;
5622;SDS011;2833;50.432;10.706;2022-11-15T00:42:29;8.07;;;6.10;;
5622;SDS011;2833;50.432;10.706;2022-11-15T00:44:54;13.37;;;6.07;;
5622;SDS011;2833;50.432;10.706;2022-11-15T00:47:19;7.10;;;5.07;;
5622;SDS011;2833;50.432;10.706;2022-11-15T00:49:44;9.97;;;5.90;;
5622;SDS011;2833;50.432;10.706;2022-11-15T00:52:09;8.80;;;5.80;;
5622;SDS011;2833;50.432;10.706;2022-11-15T00:54:35;8.57;;;5.93;;
5622;SDS011;2833;50.432;10.706;2022-11-15T00:57:00;9.60;;;5.83;;
5622;SDS011;2833;50.432;10.706;2022-11-15T00:59:25;10.63;;;6.10;;
5622;SDS011;2833;50.432;10.706;2022-11-15T01:04:45;12.67;;;5.63;;
5622;SDS011;2833;50.432;10.706;2022-11-15T01:07:10;9.60;;;5.43;;
5622;SDS011;2833;50.432;10.706;2022-11-15T01:09:35;10.67;;;6.57;;
5622;SDS011;2833;50.432;10.706;2022-11-15T01:12:00;8.77;;;5.57;;
5622;SDS011;2833;50.432;10.706;2022-11-15T01:14:26;8.50;;;5.47;;
5622;SDS011;2833;50.432;10.706;2022-11-15T01:16:51;11.93;;;5.60;;
5622;SDS011;2833;50.432;10.706;2022-11-15T01:19:16;10.97;;;6.13;;
5622;SDS011;2833;50.432;10.706;2022-11-15T01:21:41;9.83;;;5.63;;
5622;SDS011;2833;50.432;10.706;2022-11-15T01:24:07;11.70;;;5.87;;
5622;SDS011;2833;50.432;10.706;2022-11-15T01:26:32;11.30;;;6.83;;
5622;SDS011;2833;50.432;10.706;2022-11-15T01:28:58;10.20;;;5.83;;
5622;SDS011;2833;50.432;10.706;2022-11-15T01:31:23;9.10;;;5.67;;
5622;SDS011;2833;50.432;10.706;2022-11-15T01:33:48;9.47;;;5.20;;
5622;SDS011;2833;50.432;10.706;2022-11-15T01:36:15;7.57;;;5.03;;
5622;SDS011;2833;50.432;10.706;2022-11-15T01:38:40;14.73;;;6.50;;
5622;SDS011;2833;50.432;10.706;2022-11-15T01:41:06;10.23;;;6.10;;
5622;SDS011;2833;50.432;10.706;2022-11-15T01:43:35;9.47;;;6.57;;
5622;SDS011;2833;50.432;10.706;2022-11-15T01:46:02;8.73;;;5.50;;
5622;SDS011;2833;50.432;10.706;2022-11-15T01:48:33;8.20;;;5.20;;
5622;SDS011;2833;50.432;10.706;2022-11-15T01:51:02;8.97;;;5.23;;
5622;SDS011;2833;50.432;10.706;2022-11-15T01:53:30;11.27;;;7.53;;
5622;SDS011;2833;50.432;10.706;2022-11-15T01:55:57;10.53;;;5.50;;
5622;SDS011;2833;50.432;10.706;2022-11-15T01:58:22;9.27;;;6.13;;
5622;SDS011;2833;50.432;10.706;2022-11-15T02:00:48;10.20;;;5.93;;
5622;SDS011;2833;50.432;10.706;2022-11-15T02:03:14;9.17;;;5.57;;
5622;SDS011;2833;50.432;10.706;2022-11-15T02:05:39;12.20;;;6.53;;
5622;SDS011;2833;50.432;10.706;2022-11-15T02:08:06;10.70;;;6.37;;
5622;SDS011;2833;50.432;10.706;2022-11-15T02:10:31;9.73;;;5.67;;
5622;SDS011;2833;50.432;10.706;2022-11-15T02:12:56;10.40;;;6.00;;
5622;SDS011;2833;50.432;10.706;2022-11-15T02:15:23;11.67;;;6.03;;
5622;SDS011;2833;50.432;10.706;2022-11-15T02:31:05;10.00;;;5.93;;
5622;SDS011;2833;50.432;10.706;2022-11-15T02:33:35;8.43;;;5.60;;
5622;SDS011;2833;50.432;10.706;2022-11-15T02:36:12;7.80;;;5.00;;
5622;SDS011;2833;50.432;10.706;2022-11-15T02:38:53;10.63;;;5.90;;
5622;SDS011;2833;50.432;10.706;2022-11-15T02:41:24;7.60;;;5.37;;
5622;SDS011;2833;50.432;10.706;2022-11-15T02:48:46;8.50;;;5.70;;
5622;SDS011;2833;50.432;10.706;2022-11-15T02:51:13;8.20;;;5.67;;
5622;SDS011;2833;50.432;10.706;2022-11-15T02:53:38;10.67;;;5.70;;
5622;SDS011;2833;50.432;10.706;2022-11-15T02:56:03;7.27;;;5.60;;
5622;SDS011;2833;50.432;10.706;2022-11-15T03:01:15;8.77;;;5.27;;
5622;SDS011;2833;50.432;10.706;2022-11-15T03:06:22;9.20;;;5.63;;
5622;SDS011;2833;50.432;10.706;2022-11-15T03:09:08;6.97;;;4.93;;
5622;SDS011;2833;50.432;10.706;2022-11-15T03:11:39;8.30;;;4.97;;
5622;SDS011;2833;50.432;10.706;2022-11-15T03:19:22;8.73;;;5.70;;
5622;SDS011;2833;50.432;10.706;2022-11-15T03:21:49;8.40;;;5.57;;
5622;SDS011;2833;50.432;10.706;2022-11-15T03:24:16;9.77;;;5.73;;
5622;SDS011;2833;50.432;10.706;2022-11-15T03:26:42;8.83;;;5.60;;
5622;SDS011;2833;50.432;10.706;2022-11-15T03:29:11;11.83;;;5.40;;
5622;SDS011;2833;50.432;10.706;2022-11-15T03:31:39;8.33;;;5.63;;
5622;SDS011;2833;50.432;10.706;2022-11-15T03:34:27;9.07;;;5.00;;
5622;SDS011;2833;50.432;10.706;2022-11-15T03:36:54;7.07;;;4.90;;
5622;SDS011;2833;50.432;10.706;2022-11-15T03:39:20;7.73;;;5.53;;
5622;SDS011;2833;50.432;10.706;2022-11-15T03:44:30;7.00;;;5.37;;
5622;SDS011;2833;50.432;10.706;2022-11-15T03:47:00;7.80;;;4.80;;
5622;SDS011;2833;50.432;10.706;2022-11-15T03:49:32;9.17;;;5.97;;
5622;SDS011;2833;50.432;10.706;2022-11-15T03:51:59;8.10;;;5.10;;
5622;SDS011;2833;50.432;10.706;2022-11-15T03:54:24;9.10;;;5.10;;
5622;SDS011;2833;50.432;10.706;2022-11-15T03:56:49;11.13;;;5.50;;
5622;SDS011;2833;50.432;10.706;2022-11-15T03:59:14;7.20;;;5.43;;
5622;SDS011;2833;50.432;10.706;2022-11-15T04:01:40;7.60;;;5.00;;
5622;SDS011;2833;50.432;10.706;2022-11-15T04:04:05;9.13;;;5.10;;
5622;SDS011;2833;50.432;10.706;2022-11-15T04:06:30;8.73;;;5.00;;
5622;SDS011;2833;50.432;10.706;2022-11-15T04:08:55;9.00;;;4.70;;
5622;SDS011;2833;50.432;10.706;2022-11-15T04:11:20;8.00;;;4.63;;
5622;SDS011;2833;50.432;10.706;2022-11-15T04:13:46;9.60;;;5.73;;
5622;SDS011;2833;50.432;10.706;2022-11-15T04:16:11;12.53;;;5.37;;
5622;SDS011;2833;50.432;10.706;2022-11-15T04:18:36;9.60;;;4.77;;
5622;SDS011;2833;50.432;10.706;2022-11-15T04:21:02;11.10;;;5.20;;
5622;SDS011;2833;50.432;10.706;2022-11-15T04:23:45;7.37;;;4.57;;
5622;SDS011;2833;50.432;10.706;2022-11-15T04:26:29;7.67;;;5.37;;
5622;SDS011;2833;50.432;10.706;2022-11-15T04:28:54;10.10;;;4.93;;
5622;SDS011;2833;50.432;10.706;2022-11-15T04:31:38;8.43;;;4.97;;
5622;SDS011;2833;50.432;10.706;2022-11-15T04:34:03;7.47;;;4.93;;
5622;SDS011;2833;50.432;10.706;2022-11-15T04:36:29;7.57;;;5.30;;
5622;SDS011;2833;50.432;10.706;2022-11-15T04:39:12;14.77;;;5.60;;
5622;SDS011;2833;50.432;10.706;2022-11-15T04:41:38;9.00;;;5.27;;
5622;SDS011;2833;50.432;10.706;2022-11-15T04:44:03;6.63;;;5.37;;
5622;SDS011;2833;50.432;10.706;2022-11-15T04:46:28;24.33;;;9.33;;
5622;SDS011;2833;50.432;10.706;2022-11-15T04:48:54;18.60;;;10.00;;
5622;SDS011;2833;50.432;10.706;2022-11-15T04:51:19;18.50;;;8.27;;
5622;SDS011;2833;50.432;10.706;2022-11-15T04:53:45;11.20;;;5.70;;
5622;SDS011;2833;50.432;10.706;2022-11-15T04:56:10;8.57;;;5.50;;
5622;SDS011;2833;50.432;10.706;2022-11-15T04:58:35;9.13;;;5.70;;
5622;SDS011;2833;50.432;10.706;2022-11-15T05:01:07;10.73;;;6.47;;
5622;SDS011;2833;50.432;10.706;2022-11-15T05:03:33;19.57;;;9.80;;
5622;SDS011;2833;50.432;10.706;2022-11-15T05:06:16;11.80;;;7.43;;
5622;SDS011;2833;50.432;10.706;2022-11-15T05:08:41;11.73;;;5.83;;
5622;SDS011;2833;50.432;10.706;2022-11-15T05:11:07;12.83;;;7.90;;
5622;SDS011;2833;50.432;10.706;2022-11-15T05:13:32;19.27;;;8.93;;
5622;SDS011;2833;50.432;10.706;2022-11-15T05:15:57;9.47;;;6.37;;
5622;SDS011;2833;50.432;10.706;2022-11-15T05:18:22;7.20;;;5.70;;
5622;SDS011;2833;50.432;10.706;2022-11-15T05:20:47;10.57;;;6.10;;
5622;SDS011;2833;50.432;10.706;2022-11-15T05:23:13;33.00;;;13.60;;
5622;SDS011;2833;50.432;10.706;2022-11-15T05:25:38;12.53;;;6.67;;
5622;SDS011;2833;50.432;10.706;2022-11-15T05:28:03;12.73;;;6.43;;
5622;SDS011;2833;50.432;10.706;2022-11-15T05:30:29;10.33;;;6.93;;
5622;SDS011;2833;50.432;10.706;2022-11-15T05:32:54;15.50;;;6.60;;
5622;SDS011;2833;50.432;10.706;2022-11-15T05:35:27;10.40;;;5.90;;
5622;SDS011;2833;50.432;10.706;2022-11-15T05:37:55;13.03;;;6.30;;
5622;SDS011;2833;50.432;10.706;2022-11-15T05:40:21;12.77;;;6.13;;
5622;SDS011;2833;50.432;10.706;2022-11-15T05:42:46;8.80;;;6.40;;
5622;SDS011;2833;50.432;10.706;2022-11-15T05:45:11;8.00;;;5.93;;
5622;SDS011;2833;50.432;10.706;2022-11-15T05:47:37;9.10;;;6.03;;
5622;SDS011;2833;50.432;10.706;2022-11-15T05:50:03;10.00;;;5.30;;
5622;SDS011;2833;50.432;10.706;2022-11-15T05:52:29;9.57;;;5.93;;
5622;SDS011;2833;50.432;10.706;2022-11-15T05:54:55;16.63;;;5.90;;
5622;SDS011;2833;50.432;10.706;2022-11-15T05:57:21;9.63;;;6.17;;
5622;SDS011;2833;50.432;10.706;2022-11-15T05:59:46;10.60;;;6.40;;
5622;SDS011;2833;50.432;10.706;2022-11-15T06:02:11;8.20;;;6.10;;
5622;SDS011;2833;50.432;10.706;2022-11-15T06:04:37;8.63;;;6.10;;
5622;SDS011;2833;50.432;10.706;2022-11-15T06:07:02;11.80;;;7.57;;
5622;SDS011;2833;50.432;10.706;2022-11-15T06:09:27;9.17;;;6.40;;
5622;SDS011;2833;50.432;10.706;2022-11-15T06:11:52;10.90;;;6.93;;
5622;SDS011;2833;50.432;10.706;2022-11-15T06:14:18;13.03;;;7.87;;
5622;SDS011;2833;50.432;10.706;2022-11-15T06:16:43;12.10;;;7.40;;
5622;SDS011;2833;50.432;10.706;2022-11-15T06:19:08;12.17;;;6.90;;
5622;SDS011;2833;50.432;10.706;2022-11-15T06:21:34;15.93;;;8.63;;
5622;SDS011;2833;50.432;10.706;2022-11-15T06:23:59;11.67;;;8.10;;
5622;SDS011;2833;50.432;10.706;2022-11-15T06:26:24;26.87;;;12.50;;
5622;SDS011;2833;50.432;10.706;2022-11-15T06:28:49;11.37;;;7.40;;
5622;SDS011;2833;50.432;10.706;2022-11-15T06:31:15;15.47;;;8.90;;
5622;SDS011;2833;50.432;10.706;2022-11-15T06:33:40;10.93;;;7.20;;
5622;SDS011;2833;50.432;10.706;2022-11-15T06:36:09;14.57;;;9.67;;
5622;SDS011;2833;50.432;10.706;2022-11-15T06:38:35;11.53;;;7.80;;
5622;SDS011;2833;50.432;10.706;2022-11-15T06:41:04;12.60;;;7.00;;
5622;SDS011;2833;50.432;10.706;2022-11-15T06:43:30;9.87;;;7.27;;
5622;SDS011;2833;50.432;10.706;2022-11-15T06:45:55;10.70;;;7.07;;
5622;SDS011;2833;50.432;10.706;2022-11-15T06:48:20;11.57;;;6.30;;
5622;SDS011;2833;50.432;10.706;2022-11-15T06:50:52;12.87;;;7.80;;
5622;SDS011;2833;50.432;10.706;2022-11-15T06:53:17;15.20;;;8.07;;
5622;SDS011;2833;50.432;10.706;2022-11-15T06:55:43;11.23;;;7.53;;
5622;SDS011;2833;50.432;10.706;2022-11-15T06:58:08;11.80;;;7.40;;
5622;SDS011;2833;50.432;10.706;2022-11-15T07:00:33;9.43;;;6.77;;
5622;SDS011;2833;50.432;10.706;2022-11-15T07:03:02;18.17;;;7.67;;
5622;SDS011;2833;50.432;10.706;2022-11-15T07:05:27;11.67;;;7.07;;
5622;SDS011;2833;50.432;10.706;2022-11-15T07:07:52;12.60;;;7.20;;
5622;SDS011;2833;50.432;10.706;2022-11-15T07:10:18;11.67;;;7.43;;
5622;SDS011;2833;50.432;10.706;2022-11-15T07:12:46;8.63;;;6.50;;
5622;SDS011;2833;50.432;10.706;2022-11-15T07:15:11;11.47;;;6.90;;
5622;SDS011;2833;50.432;10.706;2022-11-15T07:17:36;10.80;;;7.60;;
5622;SDS011;2833;50.432;10.706;2022-11-15T07:20:02;10.23;;;6.83;;
5622;SDS011;2833;50.432;10.706;2022-11-15T07:22:27;11.80;;;7.33;;
5622;SDS011;2833;50.432;10.706;2022-11-15T07:24:52;11.20;;;7.17;;
5622;SDS011;2833;50.432;10.706;2022-11-15T07:27:17;14.13;;;6.43;;
5622;SDS011;2833;50.432;10.706;2022-11-15T07:29:43;34.33;;;16.23;;
5622;SDS011;2833;50.432;10.706;2022-11-15T07:32:09;24.97;;;15.20;;
5622;SDS011;2833;50.432;10.706;2022-11-15T07:34:34;25.37;;;14.53;;
5622;SDS011;2833;50.432;10.706;2022-11-15T07:36:59;23.70;;;12.30;;
5622;SDS011;2833;50.432;10.706;2022-11-15T07:39:24;18.87;;;10.50;;
5622;SDS011;2833;50.432;10.706;2022-11-15T07:41:50;15.13;;;9.47;;
5622;SDS011;2833;50.432;10.706;2022-11-15T07:44:35;18.93;;;10.50;;
5622;SDS011;2833;50.432;10.706;2022-11-15T07:47:00;30.17;;;18.37;;
5622;SDS011;2833;50.432;10.706;2022-11-15T07:49:25;35.50;;;18.80;;
5622;SDS011;2833;50.432;10.706;2022-11-15T07:51:50;44.50;;;24.67;;
5622;SDS011;2833;50.432;10.706;2022-11-15T07:54:16;17.90;;;10.87;;
5622;SDS011;2833;50.432;10.706;2022-11-15T07:56:41;17.43;;;8.43;;
5622;SDS011;2833;50.432;10.706;2022-11-15T07:59:06;28.77;;;14.63;;
5622;SDS011;2833;50.432;10.706;2022-11-15T08:01:32;22.10;;;11.80;;
5622;SDS011;2833;50.432;10.706;2022-11-15T08:03:57;21.43;;;13.37;;
5622;SDS011;2833;50.432;10.706;2022-11-15T08:06:22;20.13;;;11.80;;
5622;SDS011;2833;50.432;10.706;2022-11-15T08:08:47;15.90;;;10.30;;
5622;SDS011;2833;50.432;10.706;2022-11-15T08:11:13;20.87;;;12.70;;
5622;SDS011;2833;50.432;10.706;2022-11-15T08:13:38;17.63;;;10.13;;
5622;SDS011;2833;50.432;10.706;2022-11-15T08:16:04;14.80;;;9.03;;
5622;SDS011;2833;50.432;10.706;2022-11-15T08:18:30;11.13;;;7.60;;
5622;SDS011;2833;50.432;10.706;2022-11-15T08:20:58;10.97;;;7.50;;
5622;SDS011;2833;50.432;10.706;2022-11-15T08:23:23;14.20;;;8.70;;
5622;SDS011;2833;50.432;10.706;2022-11-15T08:25:48;12.43;;;7.27;;
5622;SDS011;2833;50.432;10.706;2022-11-15T08:28:15;15.93;;;8.27;;
5622;SDS011;2833;50.432;10.706;2022-11-15T08:30:41;13.93;;;9.20;;
5622;SDS011;2833;50.432;10.706;2022-11-15T08:33:09;14.93;;;9.17;;
5622;SDS011;2833;50.432;10.706;2022-11-15T08:35:35;12.90;;;7.57;;
5622;SDS011;2833;50.432;10.706;2022-11-15T08:38:00;17.27;;;7.23;;
5622;SDS011;2833;50.432;10.706;2022-11-15T08:40:25;10.00;;;5.80;;
5622;SDS011;2833;50.432;10.706;2022-11-15T08:42:52;10.03;;;6.37;;
5622;SDS011;2833;50.432;10.706;2022-11-15T08:45:17;10.50;;;6.20;;
5622;SDS011;2833;50.432;10.706;2022-11-15T08:47:42;8.70;;;6.50;;
5622;SDS011;2833;50.432;10.706;2022-11-15T08:50:08;10.07;;;6.97;;
5622;SDS011;2833;50.432;10.706;2022-11-15T08:52:33;12.00;;;7.03;;
5622;SDS011;2833;50.432;10.706;2022-11-15T08:54:58;12.57;;;7.83;;
5622;SDS011;2833;50.432;10.706;2022-11-15T08:57:24;12.70;;;8.00;;
5622;SDS011;2833;50.432;10.706;2022-11-15T08:59:49;15.37;;;9.40;;
5622;SDS011;2833;50.432;10.706;2022-11-15T09:02:14;15.63;;;7.37;;
5622;SDS011;2833;50.432;10.706;2022-11-15T09:04:40;8.03;;;5.73;;
5622;SDS011;2833;50.432;10.706;2022-11-15T09:07:06;8.37;;;5.70;;
5622;SDS011;2833;50.432;10.706;2022-11-15T09:09:31;9.00;;;5.73;;
5622;SDS011;2833;50.432;10.706;2022-11-15T09:11:56;10.10;;;5.00;;
5622;SDS011;2833;50.432;10.706;2022-11-15T09:14:21;11.60;;;6.77;;
5622;SDS011;2833;50.432;10.706;2022-11-15T09:16:47;9.03;;;5.50;;
5622;SDS011;2833;50.432;10.706;2022-11-15T09:19:12;10.00;;;5.80;;
5622;SDS011;2833;50.432;10.706;2022-11-15T09:21:39;8.80;;;5.70;;
5622;SDS011;2833;50.432;10.706;2022-11-15T09:24:04;8.70;;;5.00;;
5622;SDS011;2833;50.432;10.706;2022-11-15T09:26:30;8.40;;;5.03;;
5622;SDS011;2833;50.432;10.706;2022-11-15T09:28:55;7.50;;;5.13;;
5622;SDS011;2833;50.432;10.706;2022-11-15T09:31:20;8.90;;;5.77;;
5622;SDS011;2833;50.432;10.706;2022-11-15T09:33:46;8.87;;;5.67;;
5622;SDS011;2833;50.432;10.706;2022-11-15T09:36:11;9.77;;;6.03;;
5622;SDS011;2833;50.432;10.706;2022-11-15T09:38:37;8.10;;;5.30;;
5622;SDS011;2833;50.432;10.706;2022-11-15T09:48:54;7.70;;;5.80;;
5622;SDS011;2833;50.432;10.706;2022-11-15T09:51:34;11.27;;;7.13;;
5622;SDS011;2833;50.432;10.706;2022-11-15T09:56:32;8.30;;;5.10;;
5622;SDS011;2833;50.432;10.706;2022-11-15T10:03:53;8.93;;;5.40;;
5622;SDS011;2833;50.432;10.706;2022-11-15T10:06:24;7.27;;;5.07;;
5622;SDS011;2833;50.432;10.706;2022-11-15T10:11:19;6.97;;;4.10;;
5622;SDS011;2833;50.432;10.706;2022-11-15T10:13:46;6.83;;;4.43;;
5622;SDS011;2833;50.432;10.706;2022-11-15T10:16:26;6.50;;;4.20;;
5622;SDS011;2833;50.432;10.706;2022-11-15T10:21:21;10.73;;;5.10;;
5622;SDS011;2833;50.432;10.706;2022-11-15T10:23:49;6.13;;;4.20;;
5622;SDS011;2833;50.432;10.706;2022-11-15T10:26:16;7.03;;;4.30;;
5622;SDS011;2833;50.432;10.706;2022-11-15T10:28:41;6.77;;;4.60;;
5622;SDS011;2833;50.432;10.706;2022-11-15T10:31:40;6.37;;;4.10;;
5622;SDS011;2833;50.432;10.706;2022-11-15T10:34:15;4.87;;;3.63;;
5622;SDS011;2833;50.432;10.706;2022-11-15T10:36:45;11.17;;;5.60;;
5622;SDS011;2833;50.432;10.706;2022-11-15T10:39:11;4.00;;;3.17;;
5622;SDS011;2833;50.432;10.706;2022-11-15T10:41:38;8.20;;;5.27;;
5622;SDS011;2833;50.432;10.706;2022-11-15T10:46:32;7.90;;;4.70;;
5622;SDS011;2833;50.432;10.706;2022-11-15T10:51:43;10.00;;;5.50;;
5622;SDS011;2833;50.432;10.706;2022-11-15T10:54:10;7.60;;;4.60;;
5622;SDS011;2833;50.432;10.706;2022-11-15T10:56:36;6.40;;;3.67;;
5622;SDS011;2833;50.432;10.706;2022-11-15T10:59:01;6.13;;;4.50;;
5622;SDS011;2833;50.432;10.706;2022-11-15T11:01:27;8.57;;;3.60;;
5622;SDS011;2833;50.432;10.706;2022-11-15T11:04:01;7.50;;;4.50;;
5622;SDS011;2833;50.432;10.706;2022-11-15T11:06:27;6.20;;;4.03;;
5622;SDS011;2833;50.432;10.706;2022-11-15T11:08:54;10.37;;;5.23;;
5622;SDS011;2833;50.432;10.706;2022-11-15T11:11:19;5.53;;;4.20;;
5622;SDS011;2833;50.432;10.706;2022-11-15T11:13:44;5.50;;;3.90;;
5622;SDS011;2833;50.432;10.706;2022-11-15T11:21:52;9.07;;;4.83;;
5622;SDS011;2833;50.432;10.706;2022-11-15T11:24:31;6.20;;;4.40;;
5622;SDS011;2833;50.432;10.706;2022-11-15T11:30:02;10.40;;;4.23;;
5622;SDS011;2833;50.432;10.706;2022-11-15T11:37:33;5.77;;;4.40;;
5622;SDS011;2833;50.432;10.706;2022-11-15T11:50:26;6.10;;;3.90;;
5622;SDS011;2833;50.432;10.706;2022-11-15T11:57:51;7.00;;;4.40;;
5622;SDS011;2833;50.432;10.706;2022-11-15T12:02:52;9.27;;;4.43;;
5622;SDS011;2833;50.432;10.706;2022-11-15T12:07:45;6.80;;;4.40;;
5622;SDS011;2833;50.432;10.706;2022-11-15T12:15:22;6.63;;;4.50;;
5622;SDS011;2833;50.432;10.706;2022-11-15T12:17:49;5.73;;;4.57;;
5622;SDS011;2833;50.432;10.706;2022-11-15T12:20:18;8.07;;;4.27;;
5622;SDS011;2833;50.432;10.706;2022-11-15T12:22:46;8.10;;;5.93;;
5622;SDS011;2833;50.432;10.706;2022-11-15T12:27:42;6.87;;;4.27;;
5622;SDS011;2833;50.432;10.706;2022-11-15T12:30:16;8.03;;;5.40;;
5622;SDS011;2833;50.432;10.706;2022-11-15T12:32:55;8.20;;;5.37;;
5622;SDS011;2833;50.432;10.706;2022-11-15T12:35:27;6.60;;;4.63;;
5622;SDS011;2833;50.432;10.706;2022-11-15T12:37:53;8.27;;;4.40;;
5622;SDS011;2833;50.432;10.706;2022-11-15T12:40:24;9.73;;;5.90;;
5622;SDS011;2833;50.432;10.706;2022-11-15T12:47:56;7.20;;;4.40;;
5622;SDS011;2833;50.432;10.706;2022-11-15T13:07:02;6.80;;;4.60;;
5622;SDS011;2833;50.432;10.706;2022-11-15T13:11:54;6.73;;;4.90;;
5622;SDS011;2833;50.432;10.706;2022-11-15T13:19:44;7.47;;;5.00;;
5622;SDS011;2833;50.432;10.706;2022-11-15T13:22:10;8.33;;;4.83;;
5622;SDS011;2833;50.432;10.706;2022-11-15T13:24:54;8.90;;;5.10;;
5622;SDS011;2833;50.432;10.706;2022-11-15T13:27:20;5.80;;;4.20;;
5622;SDS011;2833;50.432;10.706;2022-11-15T13:29:45;5.20;;;4.10;;
5622;SDS011;2833;50.432;10.706;2022-11-15T13:32:11;9.63;;;5.60;;
5622;SDS011;2833;50.432;10.706;2022-11-15T13:34:38;6.50;;;4.53;;
5622;SDS011;2833;50.432;10.706;2022-11-15T13:37:29;6.20;;;3.97;;
5622;SDS011;2833;50.432;10.706;2022-11-15T13:39:54;4.40;;;3.47;;
5622;SDS011;2833;50.432;10.706;2022-11-15T13:42:20;5.60;;;3.60;;
5622;SDS011;2833;50.432;10.706;2022-11-15T13:45:02;5.27;;;3.93;;
5622;SDS011;2833;50.432;10.706;2022-11-15T13:47:28;5.40;;;4.07;;
5622;SDS011;2833;50.432;10.706;2022-11-15T13:49:56;7.03;;;4.07;;
5622;SDS011;2833;50.432;10.706;2022-11-15T13:52:21;7.57;;;3.90;;
5622;SDS011;2833;50.432;10.706;2022-11-15T13:54:52;5.20;;;3.70;;
5622;SDS011;2833;50.432;10.706;2022-11-15T13:57:22;8.90;;;4.20;;
5622;SDS011;2833;50.432;10.706;2022-11-15T13:59:49;7.50;;;4.50;;
5622;SDS011;2833;50.432;10.706;2022-11-15T14:02:17;5.97;;;3.97;;
5622;SDS011;2833;50.432;10.706;2022-11-15T14:04:46;5.77;;;3.90;;
5622;SDS011;2833;50.432;10.706;2022-11-15T14:07:16;5.80;;;4.07;;
5622;SDS011;2833;50.432;10.706;2022-11-15T14:09:42;5.87;;;3.60;;
5622;SDS011;2833;50.432;10.706;2022-11-15T14:12:22;8.83;;;4.50;;
5622;SDS011;2833;50.432;10.706;2022-11-15T14:14:47;6.43;;;3.90;;
5622;SDS011;2833;50.432;10.706;2022-11-15T14:17:18;7.03;;;3.80;;
5622;SDS011;2833;50.432;10.706;2022-11-15T14:19:44;6.70;;;4.30;;
5622;SDS011;2833;50.432;10.706;2022-11-15T14:22:10;13.73;;;5.17;;
5622;SDS011;2833;50.432;10.706;2022-11-15T14:24:36;8.37;;;5.20;;
5622;SDS011;2833;50.432;10.706;2022-11-15T14:29:46;8.90;;;5.80;;
5622;SDS011;2833;50.432;10.706;2022-11-15T14:32:18;8.20;;;4.60;;
5622;SDS011;2833;50.432;10.706;2022-11-15T14:34:44;11.37;;;5.40;;
5622;SDS011;2833;50.432;10.706;2022-11-15T14:37:16;10.40;;;6.00;;
5622;SDS011;2833;50.432;10.706;2022-11-15T14:39:43;9.50;;;5.53;;
5622;SDS011;2833;50.432;10.706;2022-11-15T14:42:09;7.93;;;4.97;;
5622;SDS011;2833;50.432;10.706;2022-11-15T14:44:34;8.90;;;4.93;;
5622;SDS011;2833;50.432;10.706;2022-11-15T14:46:59;8.67;;;5.10;;
5622;SDS011;2833;50.432;10.706;2022-11-15T14:49:25;8.57;;;4.77;;
5622;SDS011;2833;50.432;10.706;2022-11-15T14:51:50;10.17;;;5.73;;
5622;SDS011;2833;50.432;10.706;2022-11-15T14:54:15;10.70;;;6.27;;
5622;SDS011;2833;50.432;10.706;2022-11-15T14:56:40;11.27;;;6.40;;
5622;SDS011;2833;50.432;10.706;2022-11-15T14:59:07;13.17;;;6.97;;
5622;SDS011;2833;50.432;10.706;2022-11-15T15:01:32;10.37;;;6.50;;
5622;SDS011;2833;50.432;10.706;2022-11-15T15:03:58;13.33;;;8.40;;
5622;SDS011;2833;50.432;10.706;2022-11-15T15:06:23;12.00;;;6.90;;
5622;SDS011;2833;50.432;10.706;2022-11-15T15:08:49;17.23;;;9.13;;
5622;SDS011;2833;50.432;10.706;2022-11-15T15:11:20;28.93;;;13.70;;
5622;SDS011;2833;50.432;10.706;2022-11-15T15:13:46;15.90;;;9.23;;
5622;SDS011;2833;50.432;10.706;2022-11-15T15:16:12;19.83;;;11.80;;
5622;SDS011;2833;50.432;10.706;2022-11-15T15:18:37;18.10;;;9.50;;
5622;SDS011;2833;50.432;10.706;2022-11-15T15:21:20;18.63;;;10.53;;
5622;SDS011;2833;50.432;10.706;2022-11-15T15:23:46;17.37;;;10.10;;
5622;SDS011;2833;50.432;10.706;2022-11-15T15:26:11;18.23;;;9.80;;
5622;SDS011;2833;50.432;10.706;2022-11-15T15:28:36;15.07;;;9.13;;
5622;SDS011;2833;50.432;10.706;2022-11-15T15:31:03;11.37;;;7.07;;
5622;SDS011;2833;50.432;10.706;2022-11-15T15:33:28;13.77;;;7.37;;
5622;SDS011;2833;50.432;10.706;2022-11-15T15:35:54;15.33;;;6.97;;
5622;SDS011;2833;50.432;10.706;2022-11-15T15:38:19;14.00;;;6.83;;
5622;SDS011;2833;50.432;10.706;2022-11-15T15:40:44;13.90;;;6.53;;
5622;SDS011;2833;50.432;10.706;2022-11-15T15:43:09;15.00;;;8.37;;
5622;SDS011;2833;50.432;10.706;2022-11-15T15:45:36;25.17;;;9.97;;
5622;SDS011;2833;50.432;10.706;2022-11-15T15:48:01;32.43;;;13.77;;
5622;SDS011;2833;50.432;10.706;2022-11-15T15:52:52;30.83;;;15.27;;
5622;SDS011;2833;50.432;10.706;2022-11-15T15:55:18;19.50;;;11.73;;
5622;SDS011;2833;50.432;10.706;2022-11-15T15:57:43;23.47;;;11.23;;
5622;SDS011;2833;50.432;10.706;2022-11-15T16:00:08;20.50;;;9.87;;
5622;SDS011;2833;50.432;10.706;2022-11-15T16:02:34;20.97;;;8.23;;
5622;SDS011;2833;50.432;10.706;2022-11-15T16:04:59;13.33;;;7.20;;
5622;SDS011;2833;50.432;10.706;2022-11-15T16:07:24;11.67;;;7.27;;
5622;SDS011;2833;50.432;10.706;2022-11-15T16:09:50;17.17;;;7.90;;
5622;SDS011;2833;50.432;10.706;2022-11-15T16:12:24;13.87;;;7.23;;
5622;SDS011;2833;50.432;10.706;2022-11-15T16:14:50;13.60;;;7.80;;
5622;SDS011;2833;50.432;10.706;2022-11-15T16:17:19;13.23;;;8.40;;
5622;SDS011;2833;50.432;10.706;2022-11-15T16:19:44;20.73;;;9.90;;
5622;SDS011;2833;50.432;10.706;2022-11-15T16:22:10;14.90;;;8.40;;
5622;SDS011;2833;50.432;10.706;2022-11-15T16:24:35;22.60;;;10.10;;
5622;SDS011;2833;50.432;10.706;2022-11-15T16:27:00;34.13;;;9.83;;
5622;SDS011;2833;50.432;10.706;2022-11-15T16:29:25;15.90;;;9.00;;
5622;SDS011;2833;50.432;10.706;2022-11-15T16:31:51;13.20;;;8.23;;
5622;SDS011;2833;50.432;10.706;2022-11-15T16:34:16;14.27;;;8.30;;
5622;SDS011;2833;50.432;10.706;2022-11-15T16:36:41;15.83;;;9.00;;
5622;SDS011;2833;50.432;10.706;2022-11-15T16:39:08;25.90;;;14.67;;
5622;SDS011;2833;50.432;10.706;2022-11-15T16:41:35;24.77;;;13.47;;
5622;SDS011;2833;50.432;10.706;2022-11-15T16:44:00;21.53;;;11.53;;
5622;SDS011;2833;50.432;10.706;2022-11-15T16:46:26;21.50;;;13.77;;
5622;SDS011;2833;50.432;10.706;2022-11-15T16:48:52;24.20;;;14.60;;
5622;SDS011;2833;50.432;10.706;2022-11-15T16:51:20;26.10;;;14.90;;
5622;SDS011;2833;50.432;10.706;2022-11-15T16:53:46;23.73;;;12.17;;
5622;SDS011;2833;50.432;10.706;2022-11-15T16:56:26;21.97;;;12.57;;
5622;SDS011;2833;50.432;10.706;2022-11-15T16:58:52;26.63;;;11.53;;
5622;SDS011;2833;50.432;10.706;2022-11-15T17:01:21;26.10;;;13.57;;
5622;SDS011;2833;50.432;10.706;2022-11-15T17:03:47;33.17;;;19.77;;
5622;SDS011;2833;50.432;10.706;2022-11-15T17:06:12;25.73;;;15.27;;
5622;SDS011;2833;50.432;10.706;2022-11-15T17:08:38;35.10;;;17.57;;